createdAt,value
2022-11-27T00:00:11.908Z,0
2022-11-27T00:01:11.471Z,0.340
2022-11-27T00:02:11.794Z,0
2022-11-27T00:03:12.097Z,0.219
2022-11-27T00:04:11.473Z,0.109
2022-11-27T00:05:11.625Z,0
2022-11-27T00:06:11.564Z,0
2022-11-27T00:07:11.965Z,0.109
2022-11-27T00:08:11.329Z,0
2022-11-27T00:09:11.040Z,0
2022-11-27T00:10:12.729Z,0.109
2022-11-27T00:11:11.691Z,0
2022-11-27T00:12:11.802Z,0.109
2022-11-27T00:13:11.768Z,0
2022-11-27T00:14:11.946Z,0
2022-11-27T00:15:16.976Z,0
2022-11-27T00:16:11.266Z,0.109
2022-11-27T00:17:12.130Z,0
2022-11-27T00:18:12.309Z,0
2022-11-27T00:19:11.418Z,0
2022-11-27T00:20:11.888Z,0
2022-11-27T00:21:12.044Z,0
2022-11-27T00:22:12.334Z,0
2022-11-27T00:23:11.590Z,0
2022-11-27T00:24:11.800Z,0
2022-11-27T00:25:12.090Z,0
2022-11-27T00:26:12.251Z,0
2022-11-27T00:27:12.322Z,0
2022-11-27T00:28:11.640Z,0
2022-11-27T00:29:11.930Z,0
2022-11-27T00:30:12.464Z,0
2022-11-27T00:31:11.819Z,0.109
2022-11-27T00:32:11.817Z,0
2022-11-27T00:33:12.005Z,0
2022-11-27T00:34:11.357Z,0
2022-11-27T00:35:12.007Z,0
2022-11-27T00:36:12.272Z,0.109
2022-11-27T00:37:12.450Z,0
2022-11-27T00:38:12.368Z,0
2022-11-27T00:39:12.017Z,0
2022-11-27T00:40:11.756Z,0
2022-11-27T00:41:11.954Z,0
2022-11-27T00:42:12.151Z,0
2022-11-27T00:43:11.259Z,0
2022-11-27T00:44:11.439Z,0
2022-11-27T00:45:12.082Z,0.109
2022-11-27T00:46:11.313Z,0.100
2022-11-27T00:47:12.144Z,0.119
2022-11-27T00:48:11.670Z,0.109
2022-11-27T00:49:12.366Z,0
2022-11-27T00:50:12.055Z,0
2022-11-27T00:51:12.657Z,0.109
2022-11-27T00:52:17.264Z,0
2022-11-27T00:53:11.683Z,0
2022-11-27T00:54:17.069Z,0.219
2022-11-27T00:55:12.688Z,0
2022-11-27T00:56:12.484Z,0
2022-11-27T00:57:11.990Z,0.109
2022-11-27T00:58:11.751Z,0
2022-11-27T00:59:12.668Z,0
2022-11-27T01:00:13.769Z,0
2022-11-27T01:01:13.825Z,0
2022-11-27T01:02:12.275Z,0
2022-11-27T01:03:12.007Z,0.109
2022-11-27T01:04:11.652Z,0
2022-11-27T01:05:12.173Z,0
2022-11-27T01:06:11.571Z,0.109
2022-11-27T01:07:12.047Z,0
2022-11-27T01:08:11.746Z,0
2022-11-27T01:09:12.081Z,0.109
2022-11-27T01:10:11.895Z,0.219
2022-11-27T01:11:11.602Z,0
2022-11-27T01:12:26.316Z,0
2022-11-27T01:13:11.792Z,0.109
2022-11-27T01:14:11.426Z,0
2022-11-27T01:15:12.343Z,0
2022-11-27T01:16:12.524Z,0
2022-11-27T01:17:12.362Z,0
2022-11-27T01:18:11.383Z,0
2022-11-27T01:19:11.591Z,0
2022-11-27T01:20:12.662Z,0
2022-11-27T01:21:11.268Z,0.109
2022-11-27T01:22:11.492Z,0
2022-11-27T01:23:12.058Z,0.109
2022-11-27T01:24:11.488Z,0.219
2022-11-27T01:25:11.850Z,0
2022-11-27T01:26:11.068Z,0.109
2022-11-27T01:27:12.154Z,0.109
2022-11-27T01:28:11.222Z,0
2022-11-27T01:29:12.439Z,0
2022-11-27T01:30:12.045Z,0.340
2022-11-27T01:31:11.244Z,0
2022-11-27T01:32:11.666Z,0.109
2022-11-27T01:33:11.683Z,0.109
2022-11-27T01:34:12.114Z,0
2022-11-27T01:35:12.284Z,0
2022-11-27T01:36:11.462Z,0
2022-11-27T01:37:12.018Z,0
2022-11-27T01:38:11.103Z,0
2022-11-27T01:39:12.012Z,0.219
2022-11-27T01:40:11.798Z,0
2022-11-27T01:41:11.733Z,0.109
2022-11-27T01:42:12.119Z,0
2022-11-27T01:43:11.173Z,0
2022-11-27T01:44:11.530Z,0
2022-11-27T01:45:11.605Z,0.109
2022-11-27T01:46:12.019Z,0
2022-11-27T01:47:12.139Z,0.109
2022-11-27T01:48:11.314Z,0
2022-11-27T01:49:12.266Z,0
2022-11-27T01:50:11.663Z,0.109
2022-11-27T01:51:11.618Z,0
2022-11-27T01:52:11.731Z,0
2022-11-27T01:53:12.079Z,0
2022-11-27T01:54:12.160Z,0.109
2022-11-27T01:55:11.507Z,0
2022-11-27T01:56:11.801Z,0
2022-11-27T01:57:11.797Z,0
2022-11-27T01:58:12.123Z,0
2022-11-27T01:59:12.323Z,0.219
2022-11-27T02:00:12.397Z,0
2022-11-27T02:01:12.136Z,0
2022-11-27T02:02:11.524Z,0.119
2022-11-27T02:03:12.294Z,0
2022-11-27T02:04:11.583Z,0
2022-11-27T02:05:12.086Z,0
2022-11-27T02:06:11.344Z,0.100
2022-11-27T02:07:12.251Z,0
2022-11-27T02:08:11.538Z,0
2022-11-27T02:09:11.552Z,0
2022-11-27T02:10:11.607Z,0
2022-11-27T02:11:11.550Z,0.100
2022-11-27T02:12:11.765Z,0.119
2022-11-27T02:13:11.982Z,0.109
2022-11-27T02:14:12.167Z,0.100
2022-11-27T02:15:11.795Z,0
2022-11-27T02:16:16.434Z,0
2022-11-27T02:17:12.121Z,0.109
2022-11-27T02:18:11.269Z,0
2022-11-27T02:19:12.048Z,0.109
2022-11-27T02:20:12.351Z,0.109
2022-11-27T02:21:12.056Z,0
2022-11-27T02:22:11.386Z,0
2022-11-27T02:23:11.092Z,0
2022-11-27T02:24:12.189Z,0
2022-11-27T02:25:11.320Z,0
2022-11-27T02:26:11.742Z,0
2022-11-27T02:27:11.767Z,0
2022-11-27T02:28:11.817Z,0
2022-11-27T02:29:12.029Z,0
2022-11-27T02:30:12.509Z,0
2022-11-27T02:31:11.931Z,0
2022-11-27T02:32:11.226Z,0
2022-11-27T02:33:12.195Z,0.109
2022-11-27T02:34:11.310Z,0
2022-11-27T02:35:12.493Z,0.109
2022-11-27T02:36:11.632Z,0
2022-11-27T02:37:11.541Z,0
2022-11-27T02:38:11.510Z,0
2022-11-27T02:39:11.019Z,0.219
2022-11-27T02:40:12.228Z,0.109
2022-11-27T02:41:11.191Z,0
2022-11-27T02:42:11.650Z,0
2022-11-27T02:43:11.513Z,0
2022-11-27T02:44:11.489Z,0.109
2022-11-27T02:45:11.367Z,0
2022-11-27T02:46:11.772Z,0
2022-11-27T02:47:11.821Z,0
2022-11-27T02:48:12.072Z,0
2022-11-27T02:49:11.565Z,0.109
2022-11-27T02:50:11.763Z,0.109
2022-11-27T02:51:11.910Z,0
2022-11-27T02:52:12.164Z,0.109
2022-11-27T02:53:12.046Z,0.340
2022-11-27T02:54:12.039Z,0.109
2022-11-27T02:55:12.050Z,0
2022-11-27T02:56:12.143Z,0
2022-11-27T02:57:12.061Z,0
2022-11-27T02:58:12.172Z,0.219
2022-11-27T02:59:12.229Z,0
2022-11-27T03:00:11.735Z,0.219
2022-11-27T03:01:12.232Z,0.109
2022-11-27T03:02:11.662Z,0
2022-11-27T03:03:11.698Z,0
2022-11-27T03:04:12.018Z,0
2022-11-27T03:05:12.170Z,0.109
2022-11-27T03:06:12.348Z,0
2022-11-27T03:07:11.407Z,0
2022-11-27T03:08:11.430Z,0
2022-11-27T03:09:11.442Z,0
2022-11-27T03:10:12.614Z,0.219
2022-11-27T03:11:11.847Z,0.109
2022-11-27T03:12:11.739Z,0.109
2022-11-27T03:13:11.358Z,0.340
2022-11-27T03:14:11.166Z,0.109
2022-11-27T03:15:12.516Z,0.219
2022-11-27T03:16:11.740Z,0.109
2022-11-27T03:17:11.763Z,0.109
2022-11-27T03:18:11.776Z,0.109
2022-11-27T03:19:11.771Z,0.109
2022-11-27T03:20:11.719Z,0.109
2022-11-27T03:21:11.565Z,0.219
2022-11-27T03:22:11.598Z,0
2022-11-27T03:23:11.643Z,0.219
2022-11-27T03:24:11.704Z,0.219
2022-11-27T03:25:11.810Z,0
2022-11-27T03:26:11.664Z,0
2022-11-27T03:27:19.772Z,0
2022-11-27T03:28:11.772Z,0.239
2022-11-27T03:29:11.734Z,0.200
2022-11-27T03:30:12.400Z,0
2022-11-27T03:31:11.554Z,0
2022-11-27T03:32:11.653Z,0
2022-11-27T03:33:11.658Z,0.119
2022-11-27T03:34:11.684Z,0
2022-11-27T03:35:11.569Z,0.119
2022-11-27T03:36:11.731Z,0.100
2022-11-27T03:37:11.998Z,0
2022-11-27T03:38:11.935Z,0
2022-11-27T03:39:12.002Z,0.119
2022-11-27T03:40:12.458Z,0.219
2022-11-27T03:41:12.101Z,0
2022-11-27T03:42:12.202Z,0.219
2022-11-27T03:43:12.349Z,0
2022-11-27T03:44:11.419Z,0.109
2022-11-27T03:45:11.695Z,0.340
2022-11-27T03:46:12.018Z,0.109
2022-11-27T03:47:12.278Z,0.560
2022-11-27T03:48:11.458Z,0.109
2022-11-27T03:49:11.421Z,0
2022-11-27T03:50:11.168Z,0.219
2022-11-27T03:51:12.046Z,0
2022-11-27T03:52:12.017Z,0.109
2022-11-27T03:53:11.924Z,0
2022-11-27T03:54:11.714Z,0
2022-11-27T03:55:11.684Z,0.219
2022-11-27T03:56:11.762Z,0.219
2022-11-27T03:57:11.586Z,0.109
2022-11-27T03:58:11.477Z,0.109
2022-11-27T03:59:12.204Z,0
2022-11-27T04:00:11.889Z,0
2022-11-27T04:01:31.431Z,0.109
2022-11-27T04:02:11.585Z,0
2022-11-27T04:03:11.702Z,0.219
2022-11-27T04:04:11.998Z,0.109
2022-11-27T04:05:12.569Z,0
2022-11-27T04:06:11.935Z,0.109
2022-11-27T04:07:12.005Z,0
2022-11-27T04:08:12.244Z,0.109
2022-11-27T04:09:11.346Z,0
2022-11-27T04:10:11.699Z,0
2022-11-27T04:11:11.687Z,0
2022-11-27T04:12:11.636Z,0
2022-11-27T04:13:11.397Z,0
2022-11-27T04:14:11.519Z,0
2022-11-27T04:15:11.658Z,0
2022-11-27T04:16:11.523Z,0
2022-11-27T04:17:11.454Z,0.219
2022-11-27T04:18:11.559Z,0
2022-11-27T04:19:11.501Z,0
2022-11-27T04:20:12.021Z,0
2022-11-27T04:21:11.808Z,0.109
2022-11-27T04:22:11.940Z,0.109
2022-11-27T04:23:11.984Z,0
2022-11-27T04:24:12.093Z,0
2022-11-27T04:25:12.307Z,0
2022-11-27T04:26:11.447Z,0.219
2022-11-27T04:27:11.603Z,0.109
2022-11-27T04:28:11.669Z,0
2022-11-27T04:29:11.452Z,0
2022-11-27T04:30:11.812Z,0
2022-11-27T04:31:11.966Z,0
2022-11-27T04:32:12.256Z,0
2022-11-27T04:33:12.158Z,0
2022-11-27T04:34:11.362Z,0
2022-11-27T04:35:11.455Z,0
2022-11-27T04:36:11.561Z,0.340
2022-11-27T04:37:11.548Z,0
2022-11-27T04:38:12.023Z,0.109
2022-11-27T04:39:12.119Z,0
2022-11-27T04:40:12.391Z,0.109
2022-11-27T04:41:11.043Z,0
2022-11-27T04:42:12.153Z,0.109
2022-11-27T04:43:11.738Z,0.219
2022-11-27T04:44:11.912Z,0.219
2022-11-27T04:45:11.764Z,0
2022-11-27T04:46:11.739Z,0
2022-11-27T04:47:11.613Z,0.109
2022-11-27T04:48:11.763Z,0
2022-11-27T04:49:11.474Z,0
2022-11-27T04:50:11.956Z,0
2022-11-27T04:51:11.802Z,0
2022-11-27T04:52:11.697Z,0
2022-11-27T04:53:11.666Z,0
2022-11-27T04:54:11.873Z,0.219
2022-11-27T04:55:12.207Z,0
2022-11-27T04:56:11.932Z,0.119
2022-11-27T04:57:12.156Z,0.100
2022-11-27T04:58:11.258Z,0.119
2022-11-27T04:59:11.356Z,0
2022-11-27T05:00:11.938Z,0
2022-11-27T05:01:12.194Z,0
2022-11-27T05:02:11.496Z,0.100
2022-11-27T05:03:10.359Z,0
2022-11-27T05:04:11.746Z,0.219
2022-11-27T05:05:12.079Z,0
2022-11-27T05:06:11.789Z,0
2022-11-27T05:07:11.940Z,0
2022-11-27T05:08:11.385Z,0
2022-11-27T05:09:12.411Z,0.109
2022-11-27T05:10:11.875Z,0
2022-11-27T05:11:11.957Z,0
2022-11-27T05:12:11.843Z,0
2022-11-27T05:13:11.847Z,0
2022-11-27T05:14:12.076Z,0
2022-11-27T05:15:12.386Z,0
2022-11-27T05:16:11.716Z,0.109
2022-11-27T05:17:12.299Z,0
2022-11-27T05:18:11.558Z,0.109
2022-11-27T05:19:11.457Z,0.219
2022-11-27T05:20:12.285Z,0
2022-11-27T05:21:12.416Z,0.109
2022-11-27T05:22:11.608Z,0.109
2022-11-27T05:23:11.962Z,0
2022-11-27T05:24:12.222Z,0.109
2022-11-27T05:25:12.053Z,0
2022-11-27T05:26:12.145Z,0
2022-11-27T05:27:12.086Z,0
2022-11-27T05:28:11.491Z,0
2022-11-27T05:29:11.472Z,0
2022-11-27T05:30:12.617Z,0
2022-11-27T05:31:11.690Z,0.109
2022-11-27T05:32:11.680Z,0.109
2022-11-27T05:33:12.049Z,0.109
2022-11-27T05:34:11.965Z,0
2022-11-27T05:35:12.197Z,0
2022-11-27T05:36:11.507Z,0.109
2022-11-27T05:37:15.112Z,0.109
2022-11-27T05:38:12.203Z,0.109
2022-11-27T05:39:11.253Z,0
2022-11-27T05:40:11.827Z,0
2022-11-27T05:41:11.574Z,0
2022-11-27T05:42:11.826Z,0
2022-11-27T05:43:11.783Z,0
2022-11-27T05:44:11.881Z,0
2022-11-27T05:45:12.459Z,0
2022-11-27T05:46:11.767Z,0.109
2022-11-27T05:47:12.288Z,0.219
2022-11-27T05:48:11.708Z,0
2022-11-27T05:49:11.705Z,0.449
2022-11-27T05:50:12.088Z,0.340
2022-11-27T05:51:11.822Z,0
2022-11-27T05:52:11.645Z,0.219
2022-11-27T05:53:11.381Z,0
2022-11-27T05:54:11.648Z,0.340
2022-11-27T05:55:11.674Z,0.109
2022-11-27T05:56:11.715Z,0.109
2022-11-27T05:57:11.582Z,0
2022-11-27T05:58:11.607Z,0
2022-11-27T05:59:11.863Z,0
2022-11-27T06:00:12.389Z,0.109
2022-11-27T06:01:11.596Z,0.219
2022-11-27T06:02:16.465Z,0.219
2022-11-27T06:03:12.000Z,0.219
2022-11-27T06:04:11.365Z,0
2022-11-27T06:05:11.599Z,0
2022-11-27T06:06:12.010Z,0
2022-11-27T06:07:12.034Z,0
2022-11-27T06:08:11.378Z,13600
2022-11-27T06:09:13.064Z,0
2022-11-27T06:10:11.557Z,0
2022-11-27T06:11:11.907Z,0
2022-11-27T06:12:11.794Z,0
2022-11-27T06:13:11.300Z,13600
2022-11-27T06:14:11.529Z,13600
2022-11-27T06:15:11.808Z,13600
2022-11-27T06:16:12.182Z,0
2022-11-27T06:17:12.049Z,13600
2022-11-27T06:18:12.014Z,0
2022-11-27T06:19:12.002Z,0
2022-11-27T06:20:12.392Z,0
2022-11-27T06:21:11.558Z,0
2022-11-27T06:22:11.670Z,0
2022-11-27T06:23:11.709Z,0
2022-11-27T06:24:11.677Z,0
2022-11-27T06:25:11.483Z,0.050
2022-11-27T06:26:11.911Z,0.150
2022-11-27T06:27:11.518Z,0.059
2022-11-27T06:28:11.737Z,0.340
2022-11-27T06:29:11.722Z,1.009
2022-11-27T06:30:12.188Z,0
2022-11-27T06:31:17.256Z,0
2022-11-27T06:32:12.383Z,0
2022-11-27T06:33:11.522Z,0.370
2022-11-27T06:34:11.742Z,0.449
2022-11-27T06:35:11.613Z,0.310
2022-11-27T06:36:11.438Z,0.709
2022-11-27T06:37:13.399Z,1.100
2022-11-27T06:38:11.778Z,1.259
2022-11-27T06:39:11.791Z,2.029
2022-11-27T06:40:11.808Z,2.119
2022-11-27T06:41:12.101Z,2.849
2022-11-27T06:42:11.759Z,3.579
2022-11-27T06:43:11.629Z,4.019
2022-11-27T06:44:11.765Z,5.079
2022-11-27T06:45:12.207Z,6.099
2022-11-27T06:46:12.027Z,7.539
2022-11-27T06:47:12.400Z,9.130
2022-11-27T06:48:11.767Z,11.09
2022-11-27T06:49:11.667Z,13.39
2022-11-27T06:50:12.108Z,16.20
2022-11-27T06:51:12.070Z,20.5
2022-11-27T06:52:12.143Z,27.10
2022-11-27T06:53:12.190Z,34.59
2022-11-27T06:54:12.255Z,41.79
2022-11-27T06:55:12.597Z,47.70
2022-11-27T06:56:11.633Z,54.40
2022-11-27T06:57:11.468Z,61.40
2022-11-27T06:58:12.045Z,67.69
2022-11-27T06:59:11.827Z,72.19
2022-11-27T07:00:13.363Z,75
2022-11-27T07:01:11.911Z,77.04
2022-11-27T07:02:12.520Z,79.90
2022-11-27T07:03:11.739Z,82.23
2022-11-27T07:04:11.907Z,84.47
2022-11-27T07:05:12.240Z,85.98
2022-11-27T07:06:11.268Z,87.26
2022-11-27T07:07:12.517Z,86.69
2022-11-27T07:08:11.627Z,86.16
2022-11-27T07:09:12.122Z,87.83
2022-11-27T07:10:12.349Z,91.40
2022-11-27T07:11:11.501Z,95.80
2022-11-27T07:12:11.792Z,102.1
2022-11-27T07:13:11.944Z,108.9
2022-11-27T07:14:12.302Z,117.3
2022-11-27T07:15:12.342Z,129
2022-11-27T07:16:11.814Z,143
2022-11-27T07:17:12.301Z,157
2022-11-27T07:18:11.801Z,170
2022-11-27T07:19:11.661Z,181
2022-11-27T07:20:11.809Z,191.3
2022-11-27T07:21:11.899Z,199.3
2022-11-27T07:22:11.972Z,206.6
2022-11-27T07:23:12.058Z,212
2022-11-27T07:24:12.322Z,215.6
2022-11-27T07:25:12.340Z,220.1
2022-11-27T07:26:11.839Z,228
2022-11-27T07:27:11.804Z,240
2022-11-27T07:28:15.984Z,257
2022-11-27T07:29:11.965Z,273
2022-11-27T07:30:12.531Z,285.1
2022-11-27T07:31:11.549Z,288.6
2022-11-27T07:32:11.897Z,284.8
2022-11-27T07:33:12.044Z,277.6
2022-11-27T07:34:17.082Z,269.5
2022-11-27T07:35:12.404Z,261.8
2022-11-27T07:36:11.280Z,255.3
2022-11-27T07:37:11.701Z,251
2022-11-27T07:38:12.131Z,250
2022-11-27T07:39:11.538Z,252
2022-11-27T07:40:13.860Z,258.2
2022-11-27T07:41:12.373Z,267
2022-11-27T07:42:36.880Z,279
2022-11-27T07:43:12.172Z,291
2022-11-27T07:44:11.925Z,304
2022-11-27T07:45:12.103Z,318
2022-11-27T07:46:12.231Z,333
2022-11-27T07:47:11.928Z,349
2022-11-27T07:48:12.376Z,362
2022-11-27T07:49:12.552Z,374
2022-11-27T07:50:11.863Z,383.5
2022-11-27T07:51:12.326Z,390.7
2022-11-27T07:52:11.726Z,397.6
2022-11-27T07:53:11.723Z,403.7
2022-11-27T07:54:11.934Z,411
2022-11-27T07:55:12.259Z,422
2022-11-27T07:56:11.491Z,434
2022-11-27T07:57:11.882Z,449
2022-11-27T07:58:12.252Z,466
2022-11-27T07:59:11.378Z,484
2022-11-27T08:00:12.254Z,501
2022-11-27T08:01:11.998Z,519
2022-11-27T08:02:12.496Z,538
2022-11-27T08:03:11.479Z,559
2022-11-27T08:04:11.854Z,582
2022-11-27T08:05:13.200Z,607
2022-11-27T08:06:12.112Z,635
2022-11-27T08:07:11.501Z,662
2022-11-27T08:08:11.741Z,690
2022-11-27T08:09:11.752Z,720
2022-11-27T08:10:12.228Z,760
2022-11-27T08:11:12.238Z,790
2022-11-27T08:12:11.345Z,830
2022-11-27T08:13:11.990Z,870
2022-11-27T08:14:12.258Z,910
2022-11-27T08:15:12.858Z,950
2022-11-27T08:16:12.164Z,1000
2022-11-27T08:17:12.248Z,1040
2022-11-27T08:18:11.254Z,1080
2022-11-27T08:19:12.183Z,1130
2022-11-27T08:20:11.477Z,1180
2022-11-27T08:21:11.468Z,1240
2022-11-27T08:22:11.883Z,1310
2022-11-27T08:23:12.135Z,1390
2022-11-27T08:24:11.859Z,1400
2022-11-27T08:25:11.583Z,1600
2022-11-27T08:26:11.832Z,1700
2022-11-27T08:27:12.018Z,2000
2022-11-27T08:28:10.899Z,2200
2022-11-27T08:29:11.518Z,2400
2022-11-27T08:30:12.095Z,2600
2022-11-27T08:31:12.026Z,2800
2022-11-27T08:32:12.460Z,2890
2022-11-27T08:33:11.855Z,2890
2022-11-27T08:34:11.712Z,2820
2022-11-27T08:35:12.180Z,2740
2022-11-27T08:36:17.673Z,2699
2022-11-27T08:37:11.531Z,2687.
2022-11-27T08:38:11.764Z,2680.
2022-11-27T08:39:11.845Z,2675.
2022-11-27T08:40:12.101Z,2680
2022-11-27T08:41:12.162Z,2700
2022-11-27T08:42:12.013Z,2730
2022-11-27T08:43:12.277Z,2770
2022-11-27T08:44:11.711Z,2820
2022-11-27T08:45:31.313Z,2860
2022-11-27T08:46:11.703Z,2900
2022-11-27T08:47:12.029Z,2942
2022-11-27T08:48:12.434Z,2966
2022-11-27T08:49:11.844Z,2991
2022-11-27T08:50:11.735Z,3021
2022-11-27T08:51:12.223Z,3050
2022-11-27T08:52:11.460Z,3085
2022-11-27T08:53:11.696Z,3115
2022-11-27T08:54:12.080Z,3138
2022-11-27T08:55:34.454Z,3146.
2022-11-27T08:56:11.632Z,3134
2022-11-27T08:57:11.482Z,3100
2022-11-27T08:58:11.771Z,3050
2022-11-27T08:59:12.248Z,2970
2022-11-27T09:00:12.191Z,2800
2022-11-27T09:01:11.687Z,2700
2022-11-27T09:02:12.174Z,2600
2022-11-27T09:03:11.996Z,2400
2022-11-27T09:04:12.251Z,2300
2022-11-27T09:05:12.231Z,2260
2022-11-27T09:06:11.294Z,2180
2022-11-27T09:07:11.499Z,2120
2022-11-27T09:08:11.596Z,2081
2022-11-27T09:09:12.214Z,2063.
2022-11-27T09:10:11.815Z,2062.
2022-11-27T09:11:12.434Z,2071
2022-11-27T09:12:11.744Z,2083
2022-11-27T09:13:11.978Z,2099
2022-11-27T09:14:12.272Z,2119
2022-11-27T09:15:11.065Z,2140
2022-11-27T09:16:11.565Z,2190
2022-11-27T09:17:12.289Z,2250
2022-11-27T09:18:11.698Z,2320
2022-11-27T09:19:11.997Z,2390
2022-11-27T09:20:12.601Z,2450
2022-11-27T09:21:11.670Z,2510
2022-11-27T09:22:11.889Z,2580
2022-11-27T09:23:14.468Z,2600
2022-11-27T09:24:11.964Z,2700
2022-11-27T09:25:12.494Z,2900
2022-11-27T09:26:11.754Z,3100
2022-11-27T09:27:12.162Z,3300
2022-11-27T09:28:11.479Z,3500
2022-11-27T09:29:12.127Z,3800
2022-11-27T09:30:11.681Z,4000
2022-11-27T09:31:11.653Z,4300
2022-11-27T09:32:12.006Z,4600
2022-11-27T09:33:11.586Z,4800
2022-11-27T09:34:11.674Z,5000
2022-11-27T09:35:12.135Z,5100
2022-11-27T09:36:11.765Z,5300
2022-11-27T09:37:11.888Z,5500
2022-11-27T09:38:12.140Z,5658
2022-11-27T09:39:11.445Z,5600
2022-11-27T09:40:11.915Z,5400
2022-11-27T09:41:12.343Z,5100
2022-11-27T09:42:11.507Z,4800
2022-11-27T09:43:11.713Z,4600
2022-11-27T09:44:12.077Z,4400
2022-11-27T09:45:12.098Z,4300
2022-11-27T09:46:11.447Z,4220
2022-11-27T09:47:11.383Z,4199
2022-11-27T09:48:11.604Z,4187
2022-11-27T09:49:11.855Z,4194
2022-11-27T09:50:12.123Z,4250
2022-11-27T09:51:12.224Z,4300
2022-11-27T09:52:11.607Z,4500
2022-11-27T09:53:11.748Z,4700
2022-11-27T09:54:12.172Z,4810
2022-11-27T09:55:12.642Z,4890
2022-11-27T09:56:12.067Z,4960
2022-11-27T09:57:11.929Z,5013
2022-11-27T09:58:12.156Z,5009
2022-11-27T09:59:12.155Z,4970
2022-11-27T10:00:12.567Z,4910
2022-11-27T10:01:12.239Z,4840
2022-11-27T10:02:11.728Z,4760
2022-11-27T10:03:12.575Z,4690
2022-11-27T10:04:11.971Z,4664
2022-11-27T10:05:14.264Z,4670
2022-11-27T10:06:11.943Z,4730
2022-11-27T10:07:12.272Z,4790
2022-11-27T10:08:11.862Z,4842
2022-11-27T10:09:12.226Z,4848
2022-11-27T10:10:11.807Z,4810
2022-11-27T10:11:12.225Z,4760
2022-11-27T10:12:11.527Z,4710
2022-11-27T10:13:11.710Z,4670
2022-11-27T10:14:12.226Z,4620
2022-11-27T10:15:12.586Z,4550
2022-11-27T10:16:11.664Z,4480
2022-11-27T10:17:12.165Z,4410
2022-11-27T10:18:11.274Z,4340
2022-11-27T10:19:12.238Z,4260
2022-11-27T10:20:12.677Z,4180
2022-11-27T10:21:12.272Z,4110
2022-11-27T10:22:13.379Z,4040
2022-11-27T10:23:11.677Z,3960
2022-11-27T10:24:12.045Z,3880
2022-11-27T10:25:12.398Z,3800
2022-11-27T10:26:11.925Z,3700
2022-11-27T10:27:12.558Z,3600
2022-11-27T10:28:11.933Z,3500
2022-11-27T10:29:12.379Z,3400
2022-11-27T10:30:12.329Z,3300
2022-11-27T10:31:11.730Z,3220
2022-11-27T10:32:32.821Z,3100
2022-11-27T10:33:11.859Z,3000
2022-11-27T10:34:12.233Z,2800
2022-11-27T10:35:11.663Z,2750
2022-11-27T10:36:11.831Z,2660
2022-11-27T10:37:12.440Z,2610
2022-11-27T10:38:17.054Z,2587
2022-11-27T10:39:11.884Z,2568.
2022-11-27T10:40:12.535Z,2575
2022-11-27T10:41:34.320Z,2594
2022-11-27T10:42:12.140Z,2613
2022-11-27T10:43:11.561Z,2642
2022-11-27T10:44:11.709Z,2680
2022-11-27T10:45:12.029Z,2730
2022-11-27T10:46:12.238Z,2780
2022-11-27T10:47:12.049Z,2819
2022-11-27T10:48:12.392Z,2860
2022-11-27T10:49:12.659Z,2920
2022-11-27T10:50:11.958Z,2980
2022-11-27T10:51:12.109Z,3040
2022-11-27T10:52:12.251Z,3090
2022-11-27T10:53:11.454Z,3132
2022-11-27T10:54:12.029Z,3143.
2022-11-27T10:55:12.456Z,3140
2022-11-27T10:56:11.550Z,3122
2022-11-27T10:57:11.686Z,3080
2022-11-27T10:58:11.964Z,3040
2022-11-27T10:59:12.281Z,3034.
2022-11-27T11:00:13.073Z,3060
2022-11-27T11:01:12.139Z,3100
2022-11-27T11:02:11.839Z,3300
2022-11-27T11:03:12.121Z,3400
2022-11-27T11:04:24.717Z,3600
2022-11-27T11:05:34.577Z,3730
2022-11-27T11:06:31.060Z,3780
2022-11-27T11:07:11.703Z,3803.
2022-11-27T11:08:12.088Z,3820
2022-11-27T11:09:12.040Z,3863
2022-11-27T11:10:31.601Z,3850
2022-11-27T11:11:11.885Z,3800
2022-11-27T11:12:12.377Z,3747
2022-11-27T11:13:11.697Z,3728
2022-11-27T11:14:11.613Z,3738
2022-11-27T11:15:12.295Z,3751.
2022-11-27T11:16:14.727Z,3720
2022-11-27T11:17:11.913Z,3660
2022-11-27T11:18:11.384Z,3590
2022-11-27T11:19:11.832Z,3565.
2022-11-27T11:20:12.532Z,3540
2022-11-27T11:21:11.893Z,3480
2022-11-27T11:22:14.616Z,3300
2022-11-27T11:23:11.870Z,3200
2022-11-27T11:24:12.130Z,3000
2022-11-27T11:25:11.561Z,2800
2022-11-27T11:26:11.597Z,2700
2022-11-27T11:27:11.819Z,2600
2022-11-27T11:28:12.206Z,2551
2022-11-27T11:29:11.418Z,2550
2022-11-27T11:30:12.319Z,2600
2022-11-27T11:31:11.797Z,2680
2022-11-27T11:32:12.443Z,2700
2022-11-27T11:33:11.468Z,2900
2022-11-27T11:34:11.841Z,3000
2022-11-27T11:35:11.841Z,3200
2022-11-27T11:36:11.763Z,3390
2022-11-27T11:37:11.991Z,3460
2022-11-27T11:38:11.663Z,3507
2022-11-27T11:39:11.551Z,3538
2022-11-27T11:40:16.030Z,3547.
2022-11-27T11:41:11.949Z,3500
2022-11-27T11:42:12.109Z,3400
2022-11-27T11:43:12.299Z,3200
2022-11-27T11:44:11.520Z,3100
2022-11-27T11:45:11.632Z,3000
2022-11-27T11:46:11.684Z,2900
2022-11-27T11:47:11.382Z,2840
2022-11-27T11:48:11.897Z,2800
2022-11-27T11:49:11.934Z,2750
2022-11-27T11:50:12.243Z,2725
2022-11-27T11:51:11.731Z,2690
2022-11-27T11:52:12.143Z,2640
2022-11-27T11:53:12.237Z,2615
2022-11-27T11:54:12.292Z,2607
2022-11-27T11:55:12.734Z,2630
2022-11-27T11:56:11.844Z,2652.
2022-11-27T11:57:12.103Z,2644
2022-11-27T11:58:12.206Z,2617
2022-11-27T11:59:12.499Z,2598.
2022-11-27T12:00:11.964Z,2586
2022-11-27T12:01:26.324Z,2599
2022-11-27T12:02:12.451Z,2623
2022-11-27T12:03:11.830Z,2624.
2022-11-27T12:04:11.776Z,2650
2022-11-27T12:05:12.518Z,2700
2022-11-27T12:06:11.642Z,2800
2022-11-27T12:07:11.766Z,3000
2022-11-27T12:08:12.319Z,3100
2022-11-27T12:09:11.696Z,3190
2022-11-27T12:10:12.086Z,3210
2022-11-27T12:11:11.385Z,3140
2022-11-27T12:12:11.765Z,3000
2022-11-27T12:13:12.236Z,2800
2022-11-27T12:14:11.333Z,2600
2022-11-27T12:15:12.623Z,2300
2022-11-27T12:17:11.541Z,2000
2022-11-27T12:18:12.336Z,1930
2022-11-27T12:19:11.601Z,1860
2022-11-27T12:20:11.776Z,1800
2022-11-27T12:21:12.140Z,1750
2022-11-27T12:22:11.099Z,1670
2022-11-27T12:23:11.204Z,1610
2022-11-27T12:24:11.420Z,1540
2022-11-27T12:25:11.886Z,1470
2022-11-27T12:26:11.303Z,1390
2022-11-27T12:27:11.633Z,1320
2022-11-27T12:28:11.621Z,1260
2022-11-27T12:29:11.531Z,1220
2022-11-27T12:30:12.634Z,1200
2022-11-27T12:31:11.995Z,1179
2022-11-27T12:32:12.100Z,1176.
2022-11-27T12:33:12.243Z,1183.
2022-11-27T12:34:12.188Z,1191
2022-11-27T12:35:12.349Z,1212
2022-11-27T12:36:11.126Z,1243
2022-11-27T12:37:14.159Z,1271
2022-11-27T12:38:11.668Z,1293
2022-11-27T12:39:11.677Z,1308.
2022-11-27T12:40:12.204Z,1312.
2022-11-27T12:41:12.403Z,1307
2022-11-27T12:42:11.589Z,1290
2022-11-27T12:43:11.900Z,1260
2022-11-27T12:44:11.940Z,1220
2022-11-27T12:45:12.450Z,1180
2022-11-27T12:46:11.882Z,1140
2022-11-27T12:47:12.611Z,1110
2022-11-27T12:48:11.561Z,1088
2022-11-27T12:49:11.706Z,1075.
2022-11-27T12:50:12.474Z,1062
2022-11-27T12:51:11.637Z,1046
2022-11-27T12:52:12.026Z,1030
2022-11-27T12:53:12.113Z,1020
2022-11-27T12:54:11.378Z,1011
2022-11-27T12:55:11.863Z,997
2022-11-27T12:56:11.426Z,979
2022-11-27T12:57:12.242Z,957
2022-11-27T12:58:11.825Z,928
2022-11-27T12:59:11.813Z,903
2022-11-27T13:00:12.806Z,894.5
2022-11-27T13:01:12.671Z,892.2
2022-11-27T13:02:12.101Z,886
2022-11-27T13:03:11.970Z,875
2022-11-27T13:04:12.157Z,859
2022-11-27T13:05:11.840Z,842
2022-11-27T13:06:12.211Z,828.2
2022-11-27T13:07:11.529Z,822
2022-11-27T13:08:11.960Z,817.9
2022-11-27T13:09:12.251Z,820.7
2022-11-27T13:10:11.642Z,837
2022-11-27T13:11:11.454Z,870
2022-11-27T13:12:11.716Z,910
2022-11-27T13:13:12.237Z,947
2022-11-27T13:14:11.640Z,971
2022-11-27T13:15:20.158Z,982.0
2022-11-27T13:16:11.637Z,985.0
2022-11-27T13:17:25.984Z,1000
2022-11-27T13:18:12.183Z,1011.
2022-11-27T13:19:12.326Z,993
2022-11-27T13:20:11.997Z,950
2022-11-27T13:21:11.602Z,890
2022-11-27T13:22:11.806Z,820
2022-11-27T13:23:12.066Z,760
2022-11-27T13:24:11.288Z,720
2022-11-27T13:25:11.829Z,703
2022-11-27T13:26:11.769Z,699
2022-11-27T13:27:11.412Z,720
2022-11-27T13:28:12.251Z,760
2022-11-27T13:29:11.618Z,790
2022-11-27T13:30:12.338Z,820
2022-11-27T13:31:11.470Z,855
2022-11-27T13:32:12.168Z,875
2022-11-27T13:33:12.335Z,878.2
2022-11-27T13:34:11.661Z,887
2022-11-27T13:35:12.565Z,900
2022-11-27T13:36:11.597Z,913.0
2022-11-27T13:37:12.188Z,915.2
2022-11-27T13:38:11.709Z,906.7